Time;durP1;ratioP1;P1;durP2;ratioP2;P2;SDS_P1;SDS_P2;PMS_P1;PMS_P2;Temp;Humidity;BMP_temperature;BMP_pressure;BME280_temperature;BME280_humidity;BME280_pressure;Samples;Min_cycle;Max_cycle;Signal;HPM_P1;HPM_P2
2021/09/11 00:00:17;;;;;;;14.02;8.50;;;;;;;15.64;100.00;101254.34;4977464;28;20083;-78
2021/09/11 00:02:45;;;;;;;15.95;8.82;;;;;;;15.66;100.00;101259.47;4992817;28;20084;-79
2021/09/11 00:05:11;;;;;;;14.00;9.60;;;;;;;15.64;100.00;101261.47;5013141;28;20029;-78
2021/09/11 00:07:38;;;;;;;10.27;8.48;;;;;;;15.61;100.00;101254.66;4981171;28;20076;-78
2021/09/11 00:10:07;;;;;;;10.80;8.45;;;;;;;15.65;100.00;101255.16;4984265;28;20045;-79
2021/09/11 00:12:35;;;;;;;18.33;9.25;;;;;;;15.62;100.00;101250.22;5010037;28;20036;-77
2021/09/11 00:15:07;;;;;;;15.90;10.23;;;;;;;15.63;100.00;101254.50;5014862;28;20037;-78
2021/09/11 00:17:33;;;;;;;14.88;8.88;;;;;;;15.68;100.00;101260.13;5014332;28;20153;-78
2021/09/11 00:19:59;;;;;;;13.90;9.35;;;;;;;15.66;100.00;101254.19;4997463;28;20120;-77
2021/09/11 00:22:24;;;;;;;14.55;8.70;;;;;;;15.67;100.00;101251.38;5010205;28;20029;-79
2021/09/11 00:24:50;;;;;;;16.17;9.88;;;;;;;15.71;100.00;101259.81;4982027;28;20040;-79
2021/09/11 00:27:18;;;;;;;12.27;9.82;;;;;;;15.70;100.00;101252.84;4997450;28;20049;-77
2021/09/11 00:29:44;;;;;;;16.85;9.82;;;;;;;15.74;100.00;101262.13;4997681;28;20044;-78
2021/09/11 00:32:10;;;;;;;14.32;10.75;;;;;;;15.70;100.00;101258.94;4982884;28;20033;-78
2021/09/11 00:34:35;;;;;;;17.08;11.90;;;;;;;15.70;100.00;101266.06;4979378;28;20084;-78
2021/09/11 00:37:01;;;;;;;21.23;12.98;;;;;;;15.71;100.00;101267.72;4997494;28;20467;-78
2021/09/11 00:39:27;;;;;;;21.77;13.05;;;;;;;15.56;100.00;101241.16;5014228;28;20034;-79
2021/09/11 00:41:53;;;;;;;17.95;11.77;;;;;;;15.68;100.00;101266.22;5031636;28;20029;-78
2021/09/11 00:44:19;;;;;;;19.52;12.25;;;;;;;15.71;100.00;101267.72;4978712;28;20073;-80
2021/09/11 00:46:45;;;;;;;18.77;11.77;;;;;;;15.67;100.00;101261.94;4989838;28;20065;-79
2021/09/11 00:49:11;;;;;;;29.58;13.48;;;;;;;15.64;100.00;101257.00;5004992;28;20026;-80
2021/09/11 00:51:38;;;;;;;17.48;11.68;;;;;;;15.65;100.00;101253.38;4982785;28;20088;-79
2021/09/11 00:54:04;;;;;;;19.88;11.30;;;;;;;15.65;100.00;101253.38;4995199;28;20395;-79
2021/09/11 00:56:32;;;;;;;16.98;10.75;;;;;;;15.62;100.00;101256.34;5008304;28;20036;-79
2021/09/11 00:58:59;;;;;;;18.60;10.73;;;;;;;15.59;100.00;101248.72;5006349;28;20064;-79
2021/09/11 01:01:25;;;;;;;19.08;11.50;;;;;;;15.61;100.00;101257.31;5015940;28;20034;-78
2021/09/11 01:03:51;;;;;;;18.55;11.07;;;;;;;15.54;100.00;101243.94;4999568;28;20466;-78
2021/09/11 01:06:17;;;;;;;18.75;11.52;;;;;;;15.53;100.00;101244.09;5030789;28;20165;-79
2021/09/11 01:08:43;;;;;;;19.17;11.43;;;;;;;15.52;100.00;101243.28;4999921;28;20120;-79
2021/09/11 01:11:09;;;;;;;22.23;12.15;;;;;;;15.51;100.00;101246.09;5005269;28;20085;-79
2021/09/11 01:13:36;;;;;;;18.88;11.25;;;;;;;15.51;100.00;101240.81;5012976;28;20535;-80
2021/09/11 01:16:01;;;;;;;22.13;11.20;;;;;;;15.53;100.00;101241.47;4995321;28;20033;-80
2021/09/11 01:18:27;;;;;;;21.98;12.68;;;;;;;15.57;100.00;101245.41;4995299;28;20041;-80
2021/09/11 01:20:54;;;;;;;23.20;12.43;;;;;;;15.49;100.00;101235.69;4994584;28;20587;-78
2021/09/11 01:23:21;;;;;;;18.85;11.60;;;;;;;15.55;100.00;101250.06;4992996;28;20117;-81
2021/09/11 01:25:47;;;;;;;21.08;11.18;;;;;;;15.53;100.00;101255.50;5013275;28;20037;-79
2021/09/11 01:28:13;;;;;;;21.90;12.35;;;;;;;15.53;100.00;101254.69;5016107;28;20033;-80
2021/09/11 01:30:39;;;;;;;28.25;13.55;;;;;;;15.44;100.00;101245.09;4996292;28;20032;-80
2021/09/11 01:33:04;;;;;;;19.27;11.63;;;;;;;15.47;100.00;101250.06;4993661;28;20026;-81
2021/09/11 01:35:30;;;;;;;18.75;11.48;;;;;;;15.50;100.00;101265.59;5008475;28;20084;-81
2021/09/11 01:37:56;;;;;;;16.42;11.68;;;;;;;15.43;100.00;101259.31;4983613;28;20041;-82
2021/09/11 01:40:22;;;;;;;18.05;10.13;;;;;;;15.40;100.00;101262.28;4977602;28;20042;-80
2021/09/11 01:42:48;;;;;;;18.73;11.20;;;;;;;15.40;100.00;101270.22;4964397;28;20507;-79
2021/09/11 01:45:16;;;;;;;17.63;10.55;;;;;;;15.36;100.00;101281.13;4983927;28;20041;-80
2021/09/11 01:47:43;;;;;;;16.08;10.57;;;;;;;15.32;100.00;101285.09;5017079;28;20037;-79
2021/09/11 01:50:10;;;;;;;15.32;11.18;;;;;;;15.33;100.00;101291.19;4970109;28;20363;-79
2021/09/11 01:52:36;;;;;;;17.10;10.75;;;;;;;15.29;100.00;101285.41;4996565;28;20063;-81
2021/09/11 01:55:07;;;;;;;16.77;10.52;;;;;;;15.26;100.00;101287.56;5009230;22;20053;-74
2021/09/11 01:57:36;;;;;;;12.90;10.48;;;;;;;15.23;100.00;101287.88;4991900;28;20436;-80
2021/09/11 02:00:04;;;;;;;13.00;10.15;;;;;;;15.23;100.00;101294.00;4977489;28;20040;-77
2021/09/11 02:02:30;;;;;;;20.73;12.38;;;;;;;15.23;100.00;101280.78;4991951;28;20041;-79
2021/09/11 02:04:55;;;;;;;16.55;12.32;;;;;;;15.27;100.00;101286.56;4959003;28;20033;-81
2021/09/11 02:07:26;;;;;;;16.30;12.18;;;;;;;15.28;100.00;101293.50;4941948;28;20433;-77
2021/09/11 02:09:52;;;;;;;18.25;12.25;;;;;;;15.27;100.00;101279.44;4940227;28;20034;-80
2021/09/11 02:12:18;;;;;;;26.15;14.07;;;;;;;15.30;100.00;101284.41;4955677;28;20154;-79
2021/09/11 02:14:43;;;;;;;30.60;13.02;;;;;;;15.34;100.00;101283.09;4972863;28;20717;-81
2021/09/11 02:17:09;;;;;;;16.20;11.77;;;;;;;15.35;100.00;101282.13;4955342;28;20164;-79
2021/09/11 02:19:34;;;;;;;19.90;13.25;;;;;;;15.37;100.00;101281.97;4956436;28;20049;-81
2021/09/11 02:22:03;;;;;;;19.35;14.23;;;;;;;15.36;100.00;101289.03;4959212;28;20899;-81
2021/09/11 02:24:30;;;;;;;19.63;13.55;;;;;;;15.34;100.00;101283.09;4975161;28;20037;-81
2021/09/11 02:26:56;;;;;;;15.70;12.45;;;;;;;15.35;100.00;101287.41;4944513;28;20540;-81
2021/09/11 02:29:22;;;;;;;16.10;11.57;;;;;;;15.30;100.00;101286.25;4970713;28;20492;-84
2021/09/11 02:31:48;;;;;;;20.77;12.82;;;;;;;15.28;100.00;101288.22;4966365;28;20039;-82
2021/09/11 02:34:13;;;;;;;20.02;14.68;;;;;;;15.24;100.00;101286.88;4943507;28;20042;-83
2021/09/11 02:36:39;;;;;;;21.30;14.18;;;;;;;15.21;100.00;101280.13;4961489;28;20041;-83
2021/09/11 02:39:04;;;;;;;22.58;14.65;;;;;;;15.18;100.00;101288.34;4960929;28;20502;-83
2021/09/11 02:41:30;;;;;;;24.25;14.45;;;;;;;15.16;100.00;101288.56;4972649;28;20038;-82
2021/09/11 02:43:55;;;;;;;20.20;14.95;;;;;;;15.19;100.00;101290.03;4958374;28;20050;-80
2021/09/11 02:46:21;;;;;;;31.15;15.48;;;;;;;15.22;100.00;101288.88;4958239;28;20605;-83
2021/09/11 02:48:46;;;;;;;27.67;15.00;;;;;;;15.27;100.00;101300.59;4978378;28;20026;-81
2021/09/11 02:51:12;;;;;;;22.10;14.13;;;;;;;15.28;100.00;101294.34;4969866;28;20053;-82
2021/09/11 02:53:38;;;;;;;18.88;13.68;;;;;;;15.36;100.00;101290.88;4971230;28;20085;-82
2021/09/11 02:56:04;;;;;;;20.35;14.38;;;;;;;15.43;100.00;101297.16;4987487;28;20292;-77
2021/09/11 02:58:29;;;;;;;20.38;14.32;;;;;;;15.49;100.00;101303.59;4972633;28;20612;-83
2021/09/11 03:00:55;;;;;;;34.60;16.27;;;;;;;15.49;100.00;101296.50;4960634;28;20030;-83
2021/09/11 03:03:20;;;;;;;28.23;17.45;;;;;;;15.57;100.00;101298.31;4944530;28;20485;-83
2021/09/11 03:05:46;;;;;;;23.02;15.18;;;;;;;15.63;100.00;101302.91;4944258;28;20104;-86
2021/09/11 03:08:13;;;;;;;28.13;18.08;;;;;;;15.66;100.00;101299.13;4974049;28;20038;-84
2021/09/11 03:10:38;;;;;;;34.35;17.60;;;;;;;15.69;100.00;101296.13;4959717;28;20465;-85
2021/09/11 03:13:04;;;;;;;33.03;19.10;;;;;;;15.74;100.00;101296.50;4959236;28;20106;-83
2021/09/11 03:15:29;;;;;;;37.33;19.73;;;;;;;15.65;100.00;101282.44;4944230;28;20040;-87
2021/09/11 03:17:55;;;;;;;39.90;20.20;;;;;;;15.76;100.00;101292.72;4960851;28;20042;-84
2021/09/11 03:20:20;;;;;;;39.00;19.92;;;;;;;15.81;100.00;101297.50;4954742;28;20472;-83
2021/09/11 03:22:46;;;;;;;36.75;19.70;;;;;;;15.82;100.00;101291.19;4944220;28;20038;-84
2021/09/11 03:25:12;;;;;;;54.10;26.17;;;;;;;15.94;100.00;101295.16;4943640;28;20145;-83
2021/09/11 03:27:39;;;;;;;75.38;29.50;;;;;;;15.96;100.00;101293.16;4988404;28;20076;-80
2021/09/11 03:30:05;;;;;;;71.03;32.60;;;;;;;16.03;100.00;101293.34;4954905;28;20113;-84
2021/09/11 03:32:31;;;;;;;77.18;32.58;;;;;;;16.06;100.00;101294.81;4961499;28;20457;-83
2021/09/11 03:34:56;;;;;;;75.65;31.98;;;;;;;16.08;100.00;101298.91;4961803;28;20034;-83
2021/09/11 03:37:22;;;;;;;74.10;32.38;;;;;;;16.04;100.00;101289.69;4966145;28;20035;-84
2021/09/11 03:39:47;;;;;;;80.55;33.67;;;;;;;16.10;100.00;101293.47;4974754;28;20676;-82
2021/09/11 03:42:13;;;;;;;87.32;35.30;;;;;;;16.13;100.00;101296.59;4945238;28;20066;-83
2021/09/11 03:44:38;;;;;;;74.72;30.35;;;;;;;16.13;100.00;101298.44;4946220;28;20105;-83
2021/09/11 03:47:04;;;;;;;70.00;30.60;;;;;;;16.15;100.00;101299.09;4945816;28;20088;-86
2021/09/11 03:49:29;;;;;;;80.18;31.40;;;;;;;16.11;100.00;101293.31;4961372;28;20045;-84
2021/09/11 03:51:55;;;;;;;87.68;33.17;;;;;;;16.08;100.00;101284.88;4959115;28;20043;-83
2021/09/11 03:54:20;;;;;;;69.30;30.90;;;;;;;16.12;100.00;101305.56;4930948;28;20093;-83
2021/09/11 03:56:46;;;;;;;76.07;30.23;;;;;;;16.04;100.00;101283.56;4962407;28;20479;-85
2021/09/11 03:59:11;;;;;;;86.05;29.15;;;;;;;16.08;100.00;101301.56;4962288;28;20030;-83
2021/09/11 04:01:37;;;;;;;67.63;29.50;;;;;;;16.08;100.00;101301.56;4962379;28;20612;-83
2021/09/11 04:04:02;;;;;;;96.40;29.23;;;;;;;16.07;100.00;101299.94;4954459;28;20080;-83
2021/09/11 04:06:28;;;;;;;61.33;27.10;;;;;;;15.99;100.00;101291.19;4977685;28;20294;-80
2021/09/11 04:08:53;;;;;;;110.80;28.23;;;;;;;16.04;100.00;101313.50;4948047;28;20057;-82
2021/09/11 04:11:19;;;;;;;49.00;24.00;;;;;;;16.03;100.00;101311.84;4945786;28;20715;-82
2021/09/11 04:13:44;;;;;;;66.20;27.38;;;;;;;16.00;100.00;101296.31;4962312;28;20030;-82
2021/09/11 04:16:11;;;;;;;70.82;28.58;;;;;;;16.04;100.00;101310.84;4943148;28;20051;-83
2021/09/11 04:18:36;;;;;;;73.18;28.52;;;;;;;16.04;100.00;101310.03;4962288;28;20125;-83
2021/09/11 04:21:02;;;;;;;61.55;27.52;;;;;;;16.06;100.00;101305.38;4977657;28;20034;-83
2021/09/11 04:23:27;;;;;;;57.05;26.00;;;;;;;16.08;100.00;101308.69;4961869;28;20034;-83
2021/09/11 04:25:53;;;;;;;54.40;25.77;;;;;;;16.04;100.00;101300.25;4961474;28;20030;-84
2021/09/11 04:28:18;;;;;;;57.28;25.58;;;;;;;16.08;100.00;101314.78;4971570;28;20511;-85
2021/09/11 04:30:44;;;;;;;66.45;26.15;;;;;;;16.09;100.00;101313.00;4945037;28;20038;-82
2021/09/11 04:33:09;;;;;;;52.60;24.45;;;;;;;16.09;100.00;101307.72;4945623;28;20034;-81
2021/09/11 04:35:35;;;;;;;56.28;25.00;;;;;;;16.09;100.00;101310.34;4957680;28;20031;-83
2021/09/11 04:38:02;;;;;;;48.13;23.10;;;;;;;16.08;100.00;101314.78;4958683;28;20467;-82
2021/09/11 04:40:28;;;;;;;50.22;23.98;;;;;;;16.10;100.00;101307.50;4945560;28;20383;-83
2021/09/11 04:42:55;;;;;;;73.82;26.35;;;;;;;16.16;100.00;101316.59;4955999;28;20117;-82
2021/09/11 04:45:21;;;;;;;62.58;25.92;;;;;;;16.17;100.00;101322.75;4942402;28;20067;-82
2021/09/11 04:47:46;;;;;;;68.93;28.42;;;;;;;16.17;100.00;101320.09;4955103;28;20034;-82
2021/09/11 04:50:12;;;;;;;102.07;28.83;;;;;;;16.15;100.00;101323.72;4944491;28;20069;-84
2021/09/11 04:52:37;;;;;;;86.18;28.88;;;;;;;16.20;100.00;101322.38;4960080;28;20054;-81
2021/09/11 04:55:03;;;;;;;62.72;24.73;;;;;;;16.17;100.00;101312.97;4958367;28;20062;-82
2021/09/11 04:57:29;;;;;;;74.65;27.25;;;;;;;16.17;100.00;101314.81;4951434;28;20172;-83
2021/09/11 04:59:54;;;;;;;63.30;27.58;;;;;;;16.20;100.00;101314.44;4953895;28;20035;-83
2021/09/11 05:02:20;;;;;;;68.43;27.45;;;;;;;16.19;100.00;101318.09;4968629;28;20110;-82
2021/09/11 05:04:45;;;;;;;242.90;28.63;;;;;;;16.20;100.00;101331.16;4984733;28;20031;-80
2021/09/11 05:07:11;;;;;;;92.78;28.35;;;;;;;16.19;100.00;101321.56;4945837;28;20117;-82
2021/09/11 05:09:36;;;;;;;97.65;31.00;;;;;;;16.22;100.00;101323.88;4961689;28;20108;-82
2021/09/11 05:12:04;;;;;;;71.75;28.10;;;;;;;16.28;100.00;101312.59;4945075;28;20066;-82
2021/09/11 05:14:34;;;;;;;77.88;29.90;;;;;;;16.27;100.00;101318.88;4962063;28;20030;-83
2021/09/11 05:17:00;;;;;;;85.78;30.80;;;;;;;16.28;100.00;101322.38;4964913;28;20084;-83
2021/09/11 05:19:25;;;;;;;91.22;31.95;;;;;;;16.25;100.00;101320.88;4960906;28;20030;-85
2021/09/11 05:21:51;;;;;;;90.88;31.20;;;;;;;16.24;100.00;101308.66;4961365;28;20054;-85
2021/09/11 05:24:16;;;;;;;116.25;37.20;;;;;;;16.29;100.00;101324.00;4951981;28;20034;-84
2021/09/11 05:26:45;;;;;;;91.45;32.30;;;;;;;16.31;100.00;101319.38;4973649;28;20477;-85
2021/09/11 05:29:11;;;;;;;103.95;33.30;;;;;;;16.32;100.00;101319.22;4973108;28;20037;-82
2021/09/11 05:31:36;;;;;;;84.68;31.70;;;;;;;16.33;100.00;101320.03;4959152;28;20038;-85
2021/09/11 05:34:05;;;;;;;85.28;33.92;;;;;;;16.34;100.00;101329.63;4945320;28;20465;-84
2021/09/11 05:36:31;;;;;;;114.43;34.95;;;;;;;16.32;100.00;101321.03;4964442;28;20042;-86
2021/09/11 05:38:57;;;;;;;136.05;36.25;;;;;;;16.35;100.00;101333.94;4960822;28;20027;-86
2021/09/11 05:41:23;;;;;;;95.93;33.13;;;;;;;16.35;100.00;101326.81;4947552;28;20026;-84
2021/09/11 05:43:48;;;;;;;107.25;37.08;;;;;;;16.41;100.00;101330.59;4963876;28;20034;-83
2021/09/11 05:46:14;;;;;;;173.45;39.80;;;;;;;16.42;100.00;101326.94;4958918;28;20034;-81
2021/09/11 05:48:39;;;;;;;89.40;34.85;;;;;;;16.45;100.00;101333.75;4957911;28;20030;-83
2021/09/11 05:51:17;;;;;;;82.45;32.30;;;;;;;16.44;100.00;101326.78;5109455;27;20346;-78
2021/09/11 05:53:43;;;;;;;87.15;33.35;;;;;;;16.48;100.00;101325.44;5078565;28;20104;-78
2021/09/11 05:56:08;;;;;;;97.97;35.83;;;;;;;16.49;100.00;101327.09;5080687;28;20520;-79
2021/09/11 05:58:34;;;;;;;94.00;37.08;;;;;;;16.52;100.00;101334.72;5062174;28;20028;-78
2021/09/11 06:00:59;;;;;;;97.35;36.60;;;;;;;16.53;100.00;101339.81;5087632;28;20032;-78
2021/09/11 06:03:26;;;;;;;128.23;39.22;;;;;;;16.57;100.00;101340.31;5095113;28;20043;-77
2021/09/11 06:05:52;;;;;;;108.20;35.53;;;;;;;16.60;100.00;101342.63;5076411;28;20055;-78
2021/09/11 06:08:17;;;;;;;268.42;41.53;;;;;;;16.62;100.00;101343.28;5087078;28;20116;-78
2021/09/11 06:10:43;;;;;;;93.70;35.38;;;;;;;16.64;100.00;101351.06;5077913;28;20508;-78
2021/09/11 06:13:09;;;;;;;79.70;34.13;;;;;;;16.63;100.00;101355.53;5053588;28;20046;-78
2021/09/11 06:15:35;;;;;;;88.72;35.33;;;;;;;16.66;100.00;101346.41;5072017;28;20044;-79
2021/09/11 06:18:01;;;;;;;79.45;33.05;;;;;;;16.67;100.00;101348.88;5083997;28;20846;-78
2021/09/11 06:20:28;;;;;;;87.38;35.70;;;;;;;16.70;100.00;101350.34;5069848;28;20107;-78
2021/09/11 06:22:53;;;;;;;97.13;35.70;;;;;;;16.69;100.00;101352.19;5088811;28;20036;-78
2021/09/11 06:25:19;;;;;;;78.63;34.03;;;;;;;16.72;100.00;101349.19;5085576;28;20135;-77
2021/09/11 06:27:44;;;;;;;77.22;33.50;;;;;;;16.76;100.00;101347.00;5054146;28;20395;-77
2021/09/11 06:30:12;;;;;;;98.38;34.08;;;;;;;16.81;100.00;101351.81;5075426;28;20037;-78
2021/09/11 06:32:38;;;;;;;89.80;35.30;;;;;;;16.89;100.00;101355.25;5054570;28;20036;-77
2021/09/11 06:35:05;;;;;;;84.93;35.60;;;;;;;16.92;100.00;101354.91;5051307;28;20139;-78
2021/09/11 06:37:33;;;;;;;75.57;34.67;;;;;;;17.00;100.00;101346.09;5069798;28;20048;-78
2021/09/11 06:39:59;;;;;;;74.15;35.97;;;;;;;17.05;100.00;101350.91;5055251;28;20040;-78
2021/09/11 06:42:25;;;;;;;88.20;37.65;;;;;;;17.08;100.00;101351.38;5068135;28;20885;-78
2021/09/11 06:44:51;;;;;;;71.20;33.65;;;;;;;17.09;100.00;101355.66;5050764;28;20120;-78
2021/09/11 06:47:17;;;;;;;68.18;33.72;;;;;;;17.15;100.00;101348.84;5097145;28;20113;-78
2021/09/11 06:49:42;;;;;;;84.32;37.15;;;;;;;17.21;100.00;101356.06;5093294;28;20073;-77
2021/09/11 06:52:09;;;;;;;69.97;33.08;;;;;;;17.25;100.00;101354.75;5071237;28;20031;-77
2021/09/11 06:54:35;;;;;;;66.10;34.35;;;;;;;17.38;100.00;101362.09;5054716;28;20025;-78
2021/09/11 06:57:01;;;;;;;64.05;33.13;;;;;;;17.32;100.00;101354.84;5043079;28;20043;-79
2021/09/11 06:59:26;;;;;;;72.18;35.03;;;;;;;17.38;100.00;101353.31;5083894;28;20111;-79
2021/09/11 07:01:52;;;;;;;60.35;31.52;;;;;;;17.35;100.00;101362.47;5044956;28;20036;-78
2021/09/11 07:04:17;;;;;;;60.80;31.33;;;;;;;17.37;100.00;101372.91;5036351;28;20587;-78
2021/09/11 07:06:43;;;;;;;69.20;33.67;;;;;;;17.37;100.00;101367.59;5025612;28;20413;-78
2021/09/11 07:09:08;;;;;;;65.20;31.17;;;;;;;17.37;100.00;101373.72;5049935;28;20041;-78
2021/09/11 07:11:34;;;;;;;63.90;32.40;;;;;;;17.39;100.00;101366.41;5053793;28;20032;-79
2021/09/11 07:13:59;;;;;;;67.72;33.75;;;;;;;17.43;100.00;101373.00;5058163;28;20099;-77
2021/09/11 07:16:25;;;;;;;65.93;34.13;;;;;;;17.55;100.00;101373.41;5039330;28;20090;-76
2021/09/11 07:18:51;;;;;;;67.70;34.00;;;;;;;17.59;100.00;101376.53;5067791;28;20119;-78
2021/09/11 07:21:16;;;;;;;63.08;33.67;;;;;;;17.60;100.00;101368.41;5041658;28;20051;-76
2021/09/11 07:23:42;;;;;;;62.78;32.70;;;;;;;17.60;100.00;101368.41;5073255;28;20028;-78
2021/09/11 07:26:07;;;;;;;62.78;31.15;;;;;;;17.72;100.00;101374.13;5060721;28;20032;-76
2021/09/11 07:28:33;;;;;;;62.40;33.47;;;;;;;17.76;100.00;101377.25;5054551;28;20437;-76
2021/09/11 07:30:59;;;;;;;60.25;31.65;;;;;;;17.79;100.00;101379.56;5052752;28;20575;-77
2021/09/11 07:33:24;;;;;;;58.45;32.60;;;;;;;17.83;100.00;101381.66;5059311;28;20059;-77
2021/09/11 07:35:50;;;;;;;56.03;31.73;;;;;;;17.94;100.00;101376.97;5050969;28;20025;-77
2021/09/11 07:38:16;;;;;;;57.15;30.30;;;;;;;17.97;100.00;101385.41;5019528;28;20045;-76
2021/09/11 07:40:44;;;;;;;57.08;32.28;;;;;;;18.04;100.00;101388.16;5070211;28;20032;-77
2021/09/11 07:43:11;;;;;;;56.67;32.00;;;;;;;18.08;100.00;101377.00;5051800;28;20051;-77
2021/09/11 07:45:37;;;;;;;54.30;30.48;;;;;;;18.12;100.00;101387.25;5038520;28;20028;-77
2021/09/11 07:48:04;;;;;;;54.65;30.35;;;;;;;18.19;100.00;101385.53;5052727;28;20033;-77
2021/09/11 07:50:30;;;;;;;52.38;30.33;;;;;;;18.24;100.00;101376.00;5050118;28;20489;-76
2021/09/11 07:52:57;;;;;;;54.83;32.03;;;;;;;18.28;100.00;101389.75;5053240;28;20123;-77
2021/09/11 07:55:36;;;;;;;56.25;29.55;;;;;;;18.24;100.00;101376.00;5049940;28;20044;-76
2021/09/11 07:58:02;;;;;;;50.22;29.58;;;;;;;18.20;100.00;101389.84;5018936;28;20052;-78
2021/09/11 08:00:28;;;;;;;52.35;29.73;;;;;;;18.16;100.00;101389.38;5006817;28;20399;-78
2021/09/11 08:02:55;;;;;;;52.17;30.13;;;;;;;18.16;100.00;101386.72;5035109;28;20033;-81
2021/09/11 08:05:21;;;;;;;54.53;29.83;;;;;;;18.13;100.00;101395.03;5021324;28;20040;-81
2021/09/11 08:07:46;;;;;;;55.88;29.67;;;;;;;18.21;100.00;101394.13;5030650;28;20041;-80
2021/09/11 08:10:12;;;;;;;56.65;30.13;;;;;;;18.25;100.00;101403.38;5028864;28;20155;-80
2021/09/11 08:12:37;;;;;;;54.53;30.20;;;;;;;18.29;100.00;101397.53;5063805;28;20110;-79
2021/09/11 08:15:04;;;;;;;48.00;27.85;;;;;;;18.38;100.00;101400.09;5031594;28;20469;-79
2021/09/11 08:17:30;;;;;;;54.72;29.98;;;;;;;18.44;100.00;101402.00;5015346;28;20329;-79
2021/09/11 08:19:55;;;;;;;53.08;30.30;;;;;;;18.48;100.00;101390.84;5049587;28;20091;-77
2021/09/11 08:22:22;;;;;;;55.25;29.60;;;;;;;18.65;100.00;101396.81;5016179;28;20083;-79
2021/09/11 08:24:47;;;;;;;51.55;28.67;;;;;;;18.72;100.00;101396.06;5032071;28;20115;-79
2021/09/11 08:27:13;;;;;;;50.40;27.85;;;;;;;18.78;100.00;101390.00;5047991;28;20093;-76
2021/09/11 08:29:38;;;;;;;47.40;26.75;;;;;;;18.92;100.00;101401.69;5001206;28;20040;-78
2021/09/11 08:32:04;;;;;;;47.58;27.52;;;;;;;18.90;100.00;101393.88;5016847;28;20381;-77
2021/09/11 08:34:29;;;;;;;46.60;27.20;;;;;;;19.00;100.00;101404.22;5054846;28;20032;-78
2021/09/11 08:36:55;;;;;;;44.35;25.90;;;;;;;18.97;100.00;101405.44;5034796;28;20080;-79
2021/09/11 08:39:24;;;;;;;45.22;26.17;;;;;;;19.01;100.00;101404.03;5034085;28;20025;-80
2021/09/11 08:41:51;;;;;;;44.80;26.80;;;;;;;19.10;100.00;101418.06;5031262;28;20128;-79
2021/09/11 08:44:17;;;;;;;44.20;25.67;;;;;;;19.07;100.00;101413.13;5049393;28;20029;-80
2021/09/11 08:46:42;;;;;;;46.97;26.10;;;;;;;19.08;100.00;101420.09;5013576;28;20106;-79
2021/09/11 08:49:10;;;;;;;39.95;24.88;;;;;;;19.06;100.00;101432.72;5042193;28;20029;-80
2021/09/11 08:51:36;;;;;;;37.90;25.25;;;;;;;18.94;100.00;101426.25;5032465;28;20040;-82
2021/09/11 08:54:02;;;;;;;41.92;26.15;;;;;;;18.88;100.00;101419.00;5016131;28;20392;-77
2021/09/11 08:56:36;;;;;;;48.35;28.05;;;;;;;18.79;100.00;101428.88;5032244;28;20072;-79
2021/09/11 08:59:07;;;;;;;41.88;26.48;;;;;;;18.66;100.00;101434.81;5032538;28;20415;-81
2021/09/11 09:01:32;;;;;;;44.05;26.40;;;;;;;18.58;100.00;101435.75;5032345;28;20533;-80
2021/09/11 09:03:58;;;;;;;47.85;28.83;;;;;;;18.52;100.00;101433.81;5015955;28;20166;-79
2021/09/11 09:06:27;;;;;;;42.70;26.58;;;;;;;18.57;100.00;101436.78;5016022;28;20037;-76
2021/09/11 09:08:53;;;;;;;46.67;27.77;;;;;;;18.48;100.00;101443.16;5050546;28;20040;-77
2021/09/11 09:11:30;;;;;;;49.22;29.70;;;;;;;18.40;100.00;101441.41;5032074;28;20056;-79
2021/09/11 09:14:17;;;;;;;63.67;34.38;;;;;;;18.31;100.00;101439.84;5048708;28;20041;-79
2021/09/11 09:16:51;;;;;;;62.65;33.60;;;;;;;18.26;100.00;101443.03;5031490;28;20043;-80
2021/09/11 09:19:19;;;;;;;68.63;35.15;;;;;;;18.22;100.00;101436.44;5016069;28;20025;-78
2021/09/11 09:21:48;;;;;;;70.00;35.78;;;;;;;18.22;100.00;101440.94;5048770;28;20106;-80
2021/09/11 09:24:26;;;;;;;69.38;34.10;;;;;;;18.05;100.00;101446.38;5049136;28;20041;-79
2021/09/11 09:26:54;;;;;;;74.03;37.20;;;;;;;18.16;100.00;101447.78;5031959;28;20044;-80
2021/09/11 09:29:21;;;;;;;68.00;34.92;;;;;;;18.17;100.00;101443.28;5049862;28;20487;-79
2021/09/11 09:31:49;;;;;;;65.03;34.67;;;;;;;18.21;100.00;101442.72;5015206;28;20037;-79
2021/09/11 09:34:39;;;;;;;71.85;35.15;;;;;;;18.22;100.00;101441.75;5049664;28;20033;-78
2021/09/11 09:37:08;;;;;;;66.43;35.05;;;;;;;18.26;100.00;101440.38;5031660;28;20507;-78
2021/09/11 09:39:44;;;;;;;64.05;34.22;;;;;;;18.35;100.00;101448.28;5031676;28;20028;-77
2021/09/11 09:42:11;;;;;;;66.05;33.40;;;;;;;18.42;100.00;101443.88;5065799;28;20029;-80
2021/09/11 09:44:45;;;;;;;69.03;34.38;;;;;;;18.40;100.00;101443.22;5032481;28;20033;-79
2021/09/11 09:47:12;;;;;;;63.95;34.25;;;;;;;18.42;100.00;101433.25;5032346;28;20037;-79
2021/09/11 09:49:38;;;;;;;64.82;33.92;;;;;;;18.56;100.00;101432.44;5050352;28;20040;-78
2021/09/11 09:52:04;;;;;;;61.75;33.08;;;;;;;18.64;100.00;101432.34;5032275;28;20032;-79
2021/09/11 09:54:31;;;;;;;61.95;33.60;;;;;;;18.75;100.00;101436.38;5033035;28;20033;-80
2021/09/11 09:56:57;;;;;;;61.70;34.00;;;;;;;18.75;100.00;101448.84;5031763;28;20052;-79
2021/09/11 09:59:23;;;;;;;55.00;32.13;;;;;;;18.67;100.00;101437.31;5048250;28;20067;-80
2021/09/11 10:01:50;;;;;;;46.28;29.38;;;;;;;18.76;100.00;101437.19;5014956;28;20036;-78
2021/09/11 10:04:22;;;;;;;55.38;32.40;;;;;;;18.95;100.00;101439.34;5032435;28;20041;-81
2021/09/11 10:06:53;;;;;;;;;;;;;;;19.09;100.00;101444.84;5032048;28;20083;-79
2021/09/11 10:09:26;;;;;;;51.65;29.95;;;;;;;19.24;100.00;101437.66;5032434;28;19920;-78
2021/09/11 10:11:52;;;;;;;47.92;29.42;;;;;;;19.21;100.00;101438.00;5050008;28;20037;-80
2021/09/11 10:14:29;;;;;;;49.40;28.17;;;;;;;19.30;100.00;101436.06;5012437;28;20039;-80
2021/09/11 10:17:04;;;;;;;42.00;27.48;;;;;;;19.58;100.00;101429.00;5045643;28;20033;-82
2021/09/11 10:19:36;;;;;;;43.83;26.90;;;;;;;20.05;100.00;101431.31;5026767;28;20115;-79
2021/09/11 10:22:19;;;;;;;45.25;26.92;;;;;;;20.30;100.00;101434.38;5065632;28;20427;-80
2021/09/11 10:24:57;;;;;;;45.63;26.38;;;;;;;20.23;100.00;101435.16;5015491;28;20036;-81
2021/09/11 10:27:25;;;;;;;41.42;24.85;;;;;;;20.06;100.00;101431.13;5044723;28;20041;-80
2021/09/11 10:29:55;;;;;;;40.60;24.25;;;;;;;19.91;100.00;101435.69;5049380;28;20029;-80
2021/09/11 10:32:23;;;;;;;39.63;24.45;;;;;;;19.80;100.00;101435.19;5015532;28;20114;-81
2021/09/11 10:35:09;;;;;;;37.22;22.17;;;;;;;19.74;100.00;101435.13;5079752;28;20040;-81
2021/09/11 10:37:46;;;;;;;41.38;22.33;;;;;;;19.76;100.00;101433.94;5018382;28;20475;-81
2021/09/11 10:40:38;;;;;;;39.33;22.70;;;;;;;19.78;100.00;101431.91;5052071;28;20518;-79
2021/09/11 10:43:06;;;;;;;36.83;21.95;;;;;;;19.75;100.00;101434.13;5034381;28;20063;-78
2021/09/11 10:45:58;;;;;;;34.50;20.85;;;;;;;19.76;100.00;101433.09;5053222;28;20036;-79
2021/09/11 10:48:44;;;;;;;34.85;20.50;;;;;;;19.74;100.00;101435.97;5035333;28;20044;-78
2021/09/11 10:51:19;;;;;;;32.90;20.27;;;;;;;19.90;100.00;101432.22;5053533;28;20037;-77
2021/09/11 10:54:09;;;;;;;24.58;17.27;;;;;;;20.06;100.00;101436.47;5019393;28;20091;-80
2021/09/11 10:56:51;;;;;;;24.75;16.35;;;;;;;20.19;100.00;101423.25;5018627;28;20499;-80
2021/09/11 10:59:19;;;;;;;22.83;15.52;;;;;;;20.43;100.00;101429.13;5018724;28;20043;-80
2021/09/11 11:02:08;;;;;;;22.90;16.08;;;;;;;20.49;97.48;101424.84;5052773;28;20110;-80